sensor_id;sensor_type;location;lat;lon;timestamp;temperature;humidity
47174;DHT22;36730;49.036;9.094;2022-07-26T00:01:34;33.40;57.00
47174;DHT22;36730;49.036;9.094;2022-07-26T00:04:00;33.40;56.90
47174;DHT22;36730;49.036;9.094;2022-07-26T00:06:25;33.40;56.90
47174;DHT22;36730;49.036;9.094;2022-07-26T00:08:51;33.40;57.10
47174;DHT22;36730;49.036;9.094;2022-07-26T00:11:17;33.40;57.00
47174;DHT22;36730;49.036;9.094;2022-07-26T00:13:43;33.40;57.10
47174;DHT22;36730;49.036;9.094;2022-07-26T00:16:09;33.30;57.10
47174;DHT22;36730;49.036;9.094;2022-07-26T00:18:34;33.30;57.20
47174;DHT22;36730;49.036;9.094;2022-07-26T00:21:00;33.30;57.20
47174;DHT22;36730;49.036;9.094;2022-07-26T00:23:25;33.40;57.20
47174;DHT22;36730;49.036;9.094;2022-07-26T00:25:51;33.30;57.20
47174;DHT22;36730;49.036;9.094;2022-07-26T00:28:16;33.40;57.30
47174;DHT22;36730;49.036;9.094;2022-07-26T00:30:42;33.40;57.40
47174;DHT22;36730;49.036;9.094;2022-07-26T00:33:08;33.30;57.30
47174;DHT22;36730;49.036;9.094;2022-07-26T00:35:33;33.30;57.50
47174;DHT22;36730;49.036;9.094;2022-07-26T00:37:59;33.30;57.40
47174;DHT22;36730;49.036;9.094;2022-07-26T00:40:24;33.30;57.40
47174;DHT22;36730;49.036;9.094;2022-07-26T00:42:50;33.30;57.40
47174;DHT22;36730;49.036;9.094;2022-07-26T00:45:15;33.30;57.50
47174;DHT22;36730;49.036;9.094;2022-07-26T00:47:41;33.30;58.10
47174;DHT22;36730;49.036;9.094;2022-07-26T00:50:08;33.30;57.60
47174;DHT22;36730;49.036;9.094;2022-07-26T00:52:34;33.30;57.70
47174;DHT22;36730;49.036;9.094;2022-07-26T00:55:00;33.30;57.70
47174;DHT22;36730;49.036;9.094;2022-07-26T00:57:26;33.30;57.60
47174;DHT22;36730;49.036;9.094;2022-07-26T00:59:51;33.30;57.70
47174;DHT22;36730;49.036;9.094;2022-07-26T01:02:17;33.30;57.70
47174;DHT22;36730;49.036;9.094;2022-07-26T01:04:43;33.30;57.70
47174;DHT22;36730;49.036;9.094;2022-07-26T01:07:09;33.30;57.70
47174;DHT22;36730;49.036;9.094;2022-07-26T01:09:35;33.30;57.80
47174;DHT22;36730;49.036;9.094;2022-07-26T01:12:01;33.30;57.80
47174;DHT22;36730;49.036;9.094;2022-07-26T01:14:26;33.30;57.90
47174;DHT22;36730;49.036;9.094;2022-07-26T01:16:52;33.30;57.90
47174;DHT22;36730;49.036;9.094;2022-07-26T01:19:18;33.30;57.90
47174;DHT22;36730;49.036;9.094;2022-07-26T01:21:43;33.30;57.90
47174;DHT22;36730;49.036;9.094;2022-07-26T01:24:10;33.30;57.90
47174;DHT22;36730;49.036;9.094;2022-07-26T01:26:35;33.30;58.00
47174;DHT22;36730;49.036;9.094;2022-07-26T01:29:01;33.20;58.00
47174;DHT22;36730;49.036;9.094;2022-07-26T01:31:26;33.20;58.10
47174;DHT22;36730;49.036;9.094;2022-07-26T01:33:52;33.20;58.10
47174;DHT22;36730;49.036;9.094;2022-07-26T01:36:17;33.20;58.20
47174;DHT22;36730;49.036;9.094;2022-07-26T01:38:43;33.20;58.20
47174;DHT22;36730;49.036;9.094;2022-07-26T01:41:08;33.20;58.30
47174;DHT22;36730;49.036;9.094;2022-07-26T01:43:34;33.20;58.30
47174;DHT22;36730;49.036;9.094;2022-07-26T01:46:00;33.20;58.30
47174;DHT22;36730;49.036;9.094;2022-07-26T01:48:25;33.20;58.30
47174;DHT22;36730;49.036;9.094;2022-07-26T01:50:51;33.20;58.40
47174;DHT22;36730;49.036;9.094;2022-07-26T01:53:16;33.20;58.40
47174;DHT22;36730;49.036;9.094;2022-07-26T01:55:42;33.20;58.50
47174;DHT22;36730;49.036;9.094;2022-07-26T01:58:08;33.20;58.40
47174;DHT22;36730;49.036;9.094;2022-07-26T02:00:33;33.20;58.70
47174;DHT22;36730;49.036;9.094;2022-07-26T02:02:59;33.20;58.60
47174;DHT22;36730;49.036;9.094;2022-07-26T02:05:25;33.20;58.70
47174;DHT22;36730;49.036;9.094;2022-07-26T02:07:50;33.20;58.70
47174;DHT22;36730;49.036;9.094;2022-07-26T02:10:16;33.10;58.60
47174;DHT22;36730;49.036;9.094;2022-07-26T02:12:41;33.20;58.80
47174;DHT22;36730;49.036;9.094;2022-07-26T02:15:07;33.20;58.70
47174;DHT22;36730;49.036;9.094;2022-07-26T02:17:33;33.10;58.80
47174;DHT22;36730;49.036;9.094;2022-07-26T02:19:58;33.20;58.80
47174;DHT22;36730;49.036;9.094;2022-07-26T02:22:24;33.10;58.80
47174;DHT22;36730;49.036;9.094;2022-07-26T02:24:50;33.20;59.00
47174;DHT22;36730;49.036;9.094;2022-07-26T02:27:15;33.10;58.80
47174;DHT22;36730;49.036;9.094;2022-07-26T02:29:41;33.10;58.80
47174;DHT22;36730;49.036;9.094;2022-07-26T02:32:06;33.10;58.90
47174;DHT22;36730;49.036;9.094;2022-07-26T02:34:32;33.10;58.90
47174;DHT22;36730;49.036;9.094;2022-07-26T02:36:58;33.10;58.90
47174;DHT22;36730;49.036;9.094;2022-07-26T02:39:23;33.10;59.00
47174;DHT22;36730;49.036;9.094;2022-07-26T02:42:01;33.10;59.00
47174;DHT22;36730;49.036;9.094;2022-07-26T02:44:27;33.10;59.10
47174;DHT22;36730;49.036;9.094;2022-07-26T02:46:53;33.00;59.10
47174;DHT22;36730;49.036;9.094;2022-07-26T02:49:18;33.00;59.10
47174;DHT22;36730;49.036;9.094;2022-07-26T02:51:44;33.00;59.80
47174;DHT22;36730;49.036;9.094;2022-07-26T02:54:10;33.00;59.20
47174;DHT22;36730;49.036;9.094;2022-07-26T02:56:35;33.00;59.20
47174;DHT22;36730;49.036;9.094;2022-07-26T02:59:01;32.80;57.90
47174;DHT22;36730;49.036;9.094;2022-07-26T03:01:26;32.20;57.80
47174;DHT22;36730;49.036;9.094;2022-07-26T03:03:52;31.30;59.40
47174;DHT22;36730;49.036;9.094;2022-07-26T03:06:18;30.70;61.00
47174;DHT22;36730;49.036;9.094;2022-07-26T03:08:43;30.50;61.80
47174;DHT22;36730;49.036;9.094;2022-07-26T03:11:09;30.30;62.50
47174;DHT22;36730;49.036;9.094;2022-07-26T03:13:35;30.10;62.60
47174;DHT22;36730;49.036;9.094;2022-07-26T03:16:00;29.90;62.70
47174;DHT22;36730;49.036;9.094;2022-07-26T03:18:26;29.60;63.60
47174;DHT22;36730;49.036;9.094;2022-07-26T03:20:51;29.10;65.40
47174;DHT22;36730;49.036;9.094;2022-07-26T03:23:17;28.90;65.60
47174;DHT22;36730;49.036;9.094;2022-07-26T03:25:42;28.50;66.00
47174;DHT22;36730;49.036;9.094;2022-07-26T03:28:08;28.40;67.00
47174;DHT22;36730;49.036;9.094;2022-07-26T03:30:33;28.30;67.40
47174;DHT22;36730;49.036;9.094;2022-07-26T03:32:59;27.90;68.70
47174;DHT22;36730;49.036;9.094;2022-07-26T03:35:25;28.00;68.90
47174;DHT22;36730;49.036;9.094;2022-07-26T03:37:50;27.90;70.40
47174;DHT22;36730;49.036;9.094;2022-07-26T03:40:16;27.80;69.30
47174;DHT22;36730;49.036;9.094;2022-07-26T03:42:43;27.70;69.30
47174;DHT22;36730;49.036;9.094;2022-07-26T03:45:08;27.70;69.40
47174;DHT22;36730;49.036;9.094;2022-07-26T03:47:34;27.50;69.70
47174;DHT22;36730;49.036;9.094;2022-07-26T03:50:02;27.30;70.20
47174;DHT22;36730;49.036;9.094;2022-07-26T03:52:28;27.00;71.10
47174;DHT22;36730;49.036;9.094;2022-07-26T03:54:53;26.80;72.10
47174;DHT22;36730;49.036;9.094;2022-07-26T03:57:19;26.50;72.70
47174;DHT22;36730;49.036;9.094;2022-07-26T03:59:44;26.20;74.30
47174;DHT22;36730;49.036;9.094;2022-07-26T04:02:10;25.90;75.10
47174;DHT22;36730;49.036;9.094;2022-07-26T04:04:35;25.70;76.70
47174;DHT22;36730;49.036;9.094;2022-07-26T04:07:00;25.60;76.70
47174;DHT22;36730;49.036;9.094;2022-07-26T04:09:26;25.60;76.80
47174;DHT22;36730;49.036;9.094;2022-07-26T04:11:51;25.80;76.70
47174;DHT22;36730;49.036;9.094;2022-07-26T04:14:17;25.90;75.80
47174;DHT22;36730;49.036;9.094;2022-07-26T04:16:42;25.60;77.10
47174;DHT22;36730;49.036;9.094;2022-07-26T04:19:08;25.40;78.30
47174;DHT22;36730;49.036;9.094;2022-07-26T04:21:33;25.20;78.70
47174;DHT22;36730;49.036;9.094;2022-07-26T04:23:59;25.00;80.00
47174;DHT22;36730;49.036;9.094;2022-07-26T04:26:24;24.90;81.10
47174;DHT22;36730;49.036;9.094;2022-07-26T04:28:50;24.90;81.00
47174;DHT22;36730;49.036;9.094;2022-07-26T04:31:16;24.70;81.60
47174;DHT22;36730;49.036;9.094;2022-07-26T04:33:41;24.60;82.40
47174;DHT22;36730;49.036;9.094;2022-07-26T04:36:07;24.60;82.40
47174;DHT22;36730;49.036;9.094;2022-07-26T04:38:32;24.60;82.30
47174;DHT22;36730;49.036;9.094;2022-07-26T04:40:58;24.70;82.20
47174;DHT22;36730;49.036;9.094;2022-07-26T04:43:24;25.00;80.70
47174;DHT22;36730;49.036;9.094;2022-07-26T04:45:49;25.20;79.80
47174;DHT22;36730;49.036;9.094;2022-07-26T04:48:15;25.20;79.60
47174;DHT22;36730;49.036;9.094;2022-07-26T04:50:41;25.20;79.50
47174;DHT22;36730;49.036;9.094;2022-07-26T04:53:06;25.20;79.60
47174;DHT22;36730;49.036;9.094;2022-07-26T04:55:33;25.10;79.80
47174;DHT22;36730;49.036;9.094;2022-07-26T04:57:59;24.90;81.20
47174;DHT22;36730;49.036;9.094;2022-07-26T05:00:24;24.90;81.50
47174;DHT22;36730;49.036;9.094;2022-07-26T05:02:51;25.00;80.80
47174;DHT22;36730;49.036;9.094;2022-07-26T05:05:17;25.00;81.10
47174;DHT22;36730;49.036;9.094;2022-07-26T05:07:46;24.90;81.70
47174;DHT22;36730;49.036;9.094;2022-07-26T05:10:12;24.80;81.60
47174;DHT22;36730;49.036;9.094;2022-07-26T05:12:38;24.90;81.20
47174;DHT22;36730;49.036;9.094;2022-07-26T05:15:04;24.80;81.90
47174;DHT22;36730;49.036;9.094;2022-07-26T05:17:29;24.60;82.60
47174;DHT22;36730;49.036;9.094;2022-07-26T05:19:55;24.50;84.20
47174;DHT22;36730;49.036;9.094;2022-07-26T05:22:21;24.50;84.50
47174;DHT22;36730;49.036;9.094;2022-07-26T05:24:46;24.40;84.70
47174;DHT22;36730;49.036;9.094;2022-07-26T05:27:12;24.30;84.40
47174;DHT22;36730;49.036;9.094;2022-07-26T05:29:37;24.40;84.50
47174;DHT22;36730;49.036;9.094;2022-07-26T05:32:03;24.40;84.10
47174;DHT22;36730;49.036;9.094;2022-07-26T05:34:28;24.40;84.00
47174;DHT22;36730;49.036;9.094;2022-07-26T05:36:54;24.30;83.70
47174;DHT22;36730;49.036;9.094;2022-07-26T05:39:19;24.30;84.20
47174;DHT22;36730;49.036;9.094;2022-07-26T05:41:45;24.20;85.00
47174;DHT22;36730;49.036;9.094;2022-07-26T05:44:10;24.40;84.60
47174;DHT22;36730;49.036;9.094;2022-07-26T05:46:36;24.40;83.70
47174;DHT22;36730;49.036;9.094;2022-07-26T05:49:02;24.60;82.80
47174;DHT22;36730;49.036;9.094;2022-07-26T05:51:28;24.80;81.70
47174;DHT22;36730;49.036;9.094;2022-07-26T05:53:54;24.80;79.70
47174;DHT22;36730;49.036;9.094;2022-07-26T05:56:20;24.90;79.70
47174;DHT22;36730;49.036;9.094;2022-07-26T05:58:45;25.10;79.30
47174;DHT22;36730;49.036;9.094;2022-07-26T06:01:11;25.10;78.30
47174;DHT22;36730;49.036;9.094;2022-07-26T06:03:37;25.00;79.30
47174;DHT22;36730;49.036;9.094;2022-07-26T06:06:02;25.20;78.20
47174;DHT22;36730;49.036;9.094;2022-07-26T06:08:28;25.20;77.40
47174;DHT22;36730;49.036;9.094;2022-07-26T06:10:53;25.10;78.60
47174;DHT22;36730;49.036;9.094;2022-07-26T06:13:19;25.20;78.70
47174;DHT22;36730;49.036;9.094;2022-07-26T06:15:45;25.00;77.80
47174;DHT22;36730;49.036;9.094;2022-07-26T06:18:11;25.10;76.60
47174;DHT22;36730;49.036;9.094;2022-07-26T06:20:37;24.90;76.60
47174;DHT22;36730;49.036;9.094;2022-07-26T06:23:02;24.90;78.00
47174;DHT22;36730;49.036;9.094;2022-07-26T06:25:28;24.90;76.50
47174;DHT22;36730;49.036;9.094;2022-07-26T06:27:53;24.80;77.70
47174;DHT22;36730;49.036;9.094;2022-07-26T06:30:19;24.80;77.90
47174;DHT22;36730;49.036;9.094;2022-07-26T06:32:44;24.80;77.20
47174;DHT22;36730;49.036;9.094;2022-07-26T06:35:10;24.70;75.20
47174;DHT22;36730;49.036;9.094;2022-07-26T06:37:36;24.70;75.70
47174;DHT22;36730;49.036;9.094;2022-07-26T06:40:02;24.70;74.90
47174;DHT22;36730;49.036;9.094;2022-07-26T06:42:28;25.00;74.90
47174;DHT22;36730;49.036;9.094;2022-07-26T06:44:53;24.90;72.10
47174;DHT22;36730;49.036;9.094;2022-07-26T06:47:19;24.90;72.80
47174;DHT22;36730;49.036;9.094;2022-07-26T06:49:44;24.90;71.00
47174;DHT22;36730;49.036;9.094;2022-07-26T06:52:10;24.80;72.00
47174;DHT22;36730;49.036;9.094;2022-07-26T06:54:35;24.90;71.90
47174;DHT22;36730;49.036;9.094;2022-07-26T06:57:01;25.10;71.20
47174;DHT22;36730;49.036;9.094;2022-07-26T06:59:26;25.20;71.10
47174;DHT22;36730;49.036;9.094;2022-07-26T07:01:52;25.40;69.20
47174;DHT22;36730;49.036;9.094;2022-07-26T07:04:17;25.60;68.50
47174;DHT22;36730;49.036;9.094;2022-07-26T07:06:42;25.70;67.80
47174;DHT22;36730;49.036;9.094;2022-07-26T07:09:08;25.60;67.50
47174;DHT22;36730;49.036;9.094;2022-07-26T07:11:33;25.60;68.00
47174;DHT22;36730;49.036;9.094;2022-07-26T07:13:59;25.40;68.20
47174;DHT22;36730;49.036;9.094;2022-07-26T07:16:27;25.50;68.30
47174;DHT22;36730;49.036;9.094;2022-07-26T07:18:53;25.70;67.20
47174;DHT22;36730;49.036;9.094;2022-07-26T07:21:18;25.70;65.30
47174;DHT22;36730;49.036;9.094;2022-07-26T07:23:44;25.70;64.50
47174;DHT22;36730;49.036;9.094;2022-07-26T07:26:09;25.50;64.20
47174;DHT22;36730;49.036;9.094;2022-07-26T07:28:35;25.50;64.60
47174;DHT22;36730;49.036;9.094;2022-07-26T07:31:03;25.60;64.30
47174;DHT22;36730;49.036;9.094;2022-07-26T07:33:28;25.70;64.10
47174;DHT22;36730;49.036;9.094;2022-07-26T07:35:54;25.90;63.50
47174;DHT22;36730;49.036;9.094;2022-07-26T07:38:19;25.90;63.10
47174;DHT22;36730;49.036;9.094;2022-07-26T07:40:45;25.90;63.40
47174;DHT22;36730;49.036;9.094;2022-07-26T07:43:10;26.10;62.90
47174;DHT22;36730;49.036;9.094;2022-07-26T07:45:36;26.20;62.40
47174;DHT22;36730;49.036;9.094;2022-07-26T07:48:01;26.30;62.20
47174;DHT22;36730;49.036;9.094;2022-07-26T07:50:27;26.30;60.70
47174;DHT22;36730;49.036;9.094;2022-07-26T07:52:52;26.10;60.70
47174;DHT22;36730;49.036;9.094;2022-07-26T07:55:18;26.20;61.00
47174;DHT22;36730;49.036;9.094;2022-07-26T07:57:44;26.30;60.80
47174;DHT22;36730;49.036;9.094;2022-07-26T08:00:09;26.30;61.30
47174;DHT22;36730;49.036;9.094;2022-07-26T08:02:36;26.10;60.60
47174;DHT22;36730;49.036;9.094;2022-07-26T08:05:02;26.00;61.90
47174;DHT22;36730;49.036;9.094;2022-07-26T08:07:28;25.90;61.70
47174;DHT22;36730;49.036;9.094;2022-07-26T08:09:55;25.90;62.00
47174;DHT22;36730;49.036;9.094;2022-07-26T08:12:21;26.00;61.70
47174;DHT22;36730;49.036;9.094;2022-07-26T08:14:46;26.10;60.70
47174;DHT22;36730;49.036;9.094;2022-07-26T08:17:12;26.20;60.30
47174;DHT22;36730;49.036;9.094;2022-07-26T08:19:37;26.30;59.70
47174;DHT22;36730;49.036;9.094;2022-07-26T08:22:03;26.40;58.00
47174;DHT22;36730;49.036;9.094;2022-07-26T08:24:28;26.50;56.50
47174;DHT22;36730;49.036;9.094;2022-07-26T08:26:54;26.50;56.20
47174;DHT22;36730;49.036;9.094;2022-07-26T08:29:19;26.70;56.30
47174;DHT22;36730;49.036;9.094;2022-07-26T08:31:45;26.80;55.80
47174;DHT22;36730;49.036;9.094;2022-07-26T08:34:10;26.80;55.70
47174;DHT22;36730;49.036;9.094;2022-07-26T08:36:36;26.90;55.30
47174;DHT22;36730;49.036;9.094;2022-07-26T08:39:01;26.90;55.50
47174;DHT22;36730;49.036;9.094;2022-07-26T08:41:27;27.00;55.10
47174;DHT22;36730;49.036;9.094;2022-07-26T08:43:53;26.90;54.50
47174;DHT22;36730;49.036;9.094;2022-07-26T08:46:21;27.00;54.70
47174;DHT22;36730;49.036;9.094;2022-07-26T08:48:47;27.00;55.00
47174;DHT22;36730;49.036;9.094;2022-07-26T08:51:12;27.00;55.10
47174;DHT22;36730;49.036;9.094;2022-07-26T08:53:38;27.10;55.10
47174;DHT22;36730;49.036;9.094;2022-07-26T08:56:04;27.10;55.00
47174;DHT22;36730;49.036;9.094;2022-07-26T08:58:33;27.10;55.80
47174;DHT22;36730;49.036;9.094;2022-07-26T09:01:03;27.20;55.20
47174;DHT22;36730;49.036;9.094;2022-07-26T09:03:29;27.20;55.40
47174;DHT22;36730;49.036;9.094;2022-07-26T09:05:56;27.20;54.70
47174;DHT22;36730;49.036;9.094;2022-07-26T09:08:25;27.20;55.00
47174;DHT22;36730;49.036;9.094;2022-07-26T09:10:51;27.20;55.30
47174;DHT22;36730;49.036;9.094;2022-07-26T09:13:17;27.30;55.20
47174;DHT22;36730;49.036;9.094;2022-07-26T09:15:43;27.30;54.50
47174;DHT22;36730;49.036;9.094;2022-07-26T09:18:23;27.40;54.90
47174;DHT22;36730;49.036;9.094;2022-07-26T09:20:49;27.30;55.00
47174;DHT22;36730;49.036;9.094;2022-07-26T09:23:14;27.30;54.90
47174;DHT22;36730;49.036;9.094;2022-07-26T09:25:41;27.40;54.90
47174;DHT22;36730;49.036;9.094;2022-07-26T09:28:21;27.40;55.00
47174;DHT22;36730;49.036;9.094;2022-07-26T09:30:53;27.40;54.80
47174;DHT22;36730;49.036;9.094;2022-07-26T09:33:19;27.40;54.30
47174;DHT22;36730;49.036;9.094;2022-07-26T09:35:58;27.50;54.30
47174;DHT22;36730;49.036;9.094;2022-07-26T09:38:24;27.60;54.30
47174;DHT22;36730;49.036;9.094;2022-07-26T09:40:50;27.60;54.10
47174;DHT22;36730;49.036;9.094;2022-07-26T09:43:15;27.60;54.60
47174;DHT22;36730;49.036;9.094;2022-07-26T09:45:41;27.70;53.90
47174;DHT22;36730;49.036;9.094;2022-07-26T09:48:11;27.70;53.80
47174;DHT22;36730;49.036;9.094;2022-07-26T09:50:36;27.70;54.00
47174;DHT22;36730;49.036;9.094;2022-07-26T09:53:05;27.70;53.90
47174;DHT22;36730;49.036;9.094;2022-07-26T09:55:32;27.80;54.10
47174;DHT22;36730;49.036;9.094;2022-07-26T09:57:58;27.90;53.80
47174;DHT22;36730;49.036;9.094;2022-07-26T10:00:28;27.70;53.50
47174;DHT22;36730;49.036;9.094;2022-07-26T10:02:53;27.50;54.00
47174;DHT22;36730;49.036;9.094;2022-07-26T10:05:19;27.60;54.40
47174;DHT22;36730;49.036;9.094;2022-07-26T10:07:49;27.70;53.70
47174;DHT22;36730;49.036;9.094;2022-07-26T10:10:21;27.80;53.30
47174;DHT22;36730;49.036;9.094;2022-07-26T10:12:48;27.90;52.80
47174;DHT22;36730;49.036;9.094;2022-07-26T10:17:59;28.00;53.40
47174;DHT22;36730;49.036;9.094;2022-07-26T10:20:38;28.10;53.40
47174;DHT22;36730;49.036;9.094;2022-07-26T10:23:06;28.20;53.60
47174;DHT22;36730;49.036;9.094;2022-07-26T10:25:50;28.40;53.70
47174;DHT22;36730;49.036;9.094;2022-07-26T10:28:22;28.50;52.40
47174;DHT22;36730;49.036;9.094;2022-07-26T10:30:48;28.50;52.20
47174;DHT22;36730;49.036;9.094;2022-07-26T10:33:15;28.60;51.90
47174;DHT22;36730;49.036;9.094;2022-07-26T10:35:41;28.70;51.80
47174;DHT22;36730;49.036;9.094;2022-07-26T10:40:36;28.90;51.70
47174;DHT22;36730;49.036;9.094;2022-07-26T10:45:33;29.00;52.20
47174;DHT22;36730;49.036;9.094;2022-07-26T10:48:09;29.00;51.00
47174;DHT22;36730;49.036;9.094;2022-07-26T10:50:35;29.10;51.20
47174;DHT22;36730;49.036;9.094;2022-07-26T10:53:01;29.10;51.00
47174;DHT22;36730;49.036;9.094;2022-07-26T10:55:27;29.20;51.30
47174;DHT22;36730;49.036;9.094;2022-07-26T10:57:52;29.30;50.70
47174;DHT22;36730;49.036;9.094;2022-07-26T11:00:23;29.30;50.80
47174;DHT22;36730;49.036;9.094;2022-07-26T11:02:51;29.40;50.50
47174;DHT22;36730;49.036;9.094;2022-07-26T11:05:17;29.50;50.20
47174;DHT22;36730;49.036;9.094;2022-07-26T11:13:01;29.50;50.90
47174;DHT22;36730;49.036;9.094;2022-07-26T11:15:27;29.50;50.80
47174;DHT22;36730;49.036;9.094;2022-07-26T11:20:57;29.30;50.30
47174;DHT22;36730;49.036;9.094;2022-07-26T11:23:33;29.20;50.80
47174;DHT22;36730;49.036;9.094;2022-07-26T11:28:24;29.10;50.20
47174;DHT22;36730;49.036;9.094;2022-07-26T11:30:56;29.10;49.60
47174;DHT22;36730;49.036;9.094;2022-07-26T11:33:38;29.00;49.70
47174;DHT22;36730;49.036;9.094;2022-07-26T11:36:04;28.90;49.10
47174;DHT22;36730;49.036;9.094;2022-07-26T11:38:46;28.90;48.80
47174;DHT22;36730;49.036;9.094;2022-07-26T11:41:11;28.80;49.40
47174;DHT22;36730;49.036;9.094;2022-07-26T11:43:39;28.90;49.50
47174;DHT22;36730;49.036;9.094;2022-07-26T11:46:05;28.80;48.70
47174;DHT22;36730;49.036;9.094;2022-07-26T11:48:30;28.90;49.20
47174;DHT22;36730;49.036;9.094;2022-07-26T11:51:07;28.90;48.80
47174;DHT22;36730;49.036;9.094;2022-07-26T11:53:36;29.00;48.70
47174;DHT22;36730;49.036;9.094;2022-07-26T11:56:18;29.00;49.30
47174;DHT22;36730;49.036;9.094;2022-07-26T11:58:45;29.00;48.30
47174;DHT22;36730;49.036;9.094;2022-07-26T12:01:11;29.00;48.40
47174;DHT22;36730;49.036;9.094;2022-07-26T12:03:38;29.00;48.70
47174;DHT22;36730;49.036;9.094;2022-07-26T12:06:04;29.10;48.20
47174;DHT22;36730;49.036;9.094;2022-07-26T12:08:46;29.10;48.60
47174;DHT22;36730;49.036;9.094;2022-07-26T12:11:12;29.10;48.40
47174;DHT22;36730;49.036;9.094;2022-07-26T12:19:00;29.10;48.40
47174;DHT22;36730;49.036;9.094;2022-07-26T12:21:41;29.10;47.60
47174;DHT22;36730;49.036;9.094;2022-07-26T12:24:07;29.10;48.00
47174;DHT22;36730;49.036;9.094;2022-07-26T12:26:33;29.00;47.90
47174;DHT22;36730;49.036;9.094;2022-07-26T12:28:59;29.00;48.40
47174;DHT22;36730;49.036;9.094;2022-07-26T12:31:44;28.90;47.90
47174;DHT22;36730;49.036;9.094;2022-07-26T12:34:10;28.90;48.80
47174;DHT22;36730;49.036;9.094;2022-07-26T12:36:36;28.80;48.80
47174;DHT22;36730;49.036;9.094;2022-07-26T12:39:01;28.80;49.10
47174;DHT22;36730;49.036;9.094;2022-07-26T12:41:31;28.80;48.80
47174;DHT22;36730;49.036;9.094;2022-07-26T12:43:56;28.80;49.60
47174;DHT22;36730;49.036;9.094;2022-07-26T12:46:23;28.70;49.00
47174;DHT22;36730;49.036;9.094;2022-07-26T12:48:48;28.60;49.20
47174;DHT22;36730;49.036;9.094;2022-07-26T12:51:14;28.60;48.20
47174;DHT22;36730;49.036;9.094;2022-07-26T12:53:39;28.60;47.70
47174;DHT22;36730;49.036;9.094;2022-07-26T12:56:05;28.60;48.20
47174;DHT22;36730;49.036;9.094;2022-07-26T12:58:30;28.50;48.00
47174;DHT22;36730;49.036;9.094;2022-07-26T13:00:56;28.50;48.00
47174;DHT22;36730;49.036;9.094;2022-07-26T13:03:21;28.40;48.70
47174;DHT22;36730;49.036;9.094;2022-07-26T13:05:47;28.40;48.40
47174;DHT22;36730;49.036;9.094;2022-07-26T13:08:12;28.40;48.70
47174;DHT22;36730;49.036;9.094;2022-07-26T13:10:39;28.40;48.70
47174;DHT22;36730;49.036;9.094;2022-07-26T13:13:05;28.50;48.70
47174;DHT22;36730;49.036;9.094;2022-07-26T13:15:30;28.50;47.80
47174;DHT22;36730;49.036;9.094;2022-07-26T13:17:56;28.40;48.10
47174;DHT22;36730;49.036;9.094;2022-07-26T13:20:21;28.40;47.90
47174;DHT22;36730;49.036;9.094;2022-07-26T13:22:47;28.50;47.60
47174;DHT22;36730;49.036;9.094;2022-07-26T13:25:12;28.50;48.00
47174;DHT22;36730;49.036;9.094;2022-07-26T13:27:38;28.50;47.60
47174;DHT22;36730;49.036;9.094;2022-07-26T13:30:03;28.50;46.90
47174;DHT22;36730;49.036;9.094;2022-07-26T13:32:29;28.60;47.40
47174;DHT22;36730;49.036;9.094;2022-07-26T13:34:55;28.60;47.00
47174;DHT22;36730;49.036;9.094;2022-07-26T13:37:20;28.60;46.60
47174;DHT22;36730;49.036;9.094;2022-07-26T13:39:45;28.70;47.30
47174;DHT22;36730;49.036;9.094;2022-07-26T13:42:11;28.70;46.90
47174;DHT22;36730;49.036;9.094;2022-07-26T13:44:37;28.80;46.90
47174;DHT22;36730;49.036;9.094;2022-07-26T13:47:03;28.80;46.60
47174;DHT22;36730;49.036;9.094;2022-07-26T13:49:28;28.80;46.80
47174;DHT22;36730;49.036;9.094;2022-07-26T13:51:54;28.90;46.60
47174;DHT22;36730;49.036;9.094;2022-07-26T13:54:24;28.90;46.80
47174;DHT22;36730;49.036;9.094;2022-07-26T13:56:50;28.80;47.00
47174;DHT22;36730;49.036;9.094;2022-07-26T13:59:16;28.80;47.10
47174;DHT22;36730;49.036;9.094;2022-07-26T14:01:42;28.90;48.30
47174;DHT22;36730;49.036;9.094;2022-07-26T14:04:08;28.80;47.40
47174;DHT22;36730;49.036;9.094;2022-07-26T14:06:34;28.70;48.40
47174;DHT22;36730;49.036;9.094;2022-07-26T14:08:59;28.60;48.00
47174;DHT22;36730;49.036;9.094;2022-07-26T14:11:25;28.60;47.90
47174;DHT22;36730;49.036;9.094;2022-07-26T14:13:51;28.70;47.80
47174;DHT22;36730;49.036;9.094;2022-07-26T14:16:17;28.60;48.10
47174;DHT22;36730;49.036;9.094;2022-07-26T14:18:42;28.60;47.60
47174;DHT22;36730;49.036;9.094;2022-07-26T14:21:08;28.50;47.90
47174;DHT22;36730;49.036;9.094;2022-07-26T14:23:33;28.50;48.60
47174;DHT22;36730;49.036;9.094;2022-07-26T14:25:59;28.50;48.90
47174;DHT22;36730;49.036;9.094;2022-07-26T14:28:24;28.40;48.80
47174;DHT22;36730;49.036;9.094;2022-07-26T14:30:50;28.40;48.40
47174;DHT22;36730;49.036;9.094;2022-07-26T14:33:15;28.40;48.50
47174;DHT22;36730;49.036;9.094;2022-07-26T14:35:41;28.50;48.50
47174;DHT22;36730;49.036;9.094;2022-07-26T14:38:08;28.50;49.00
47174;DHT22;36730;49.036;9.094;2022-07-26T14:40:34;28.50;48.30
47174;DHT22;36730;49.036;9.094;2022-07-26T14:42:59;28.40;48.90
47174;DHT22;36730;49.036;9.094;2022-07-26T14:45:26;28.50;48.20
47174;DHT22;36730;49.036;9.094;2022-07-26T14:47:52;28.40;48.20
47174;DHT22;36730;49.036;9.094;2022-07-26T14:50:17;28.40;48.30
47174;DHT22;36730;49.036;9.094;2022-07-26T14:52:44;28.40;48.30
47174;DHT22;36730;49.036;9.094;2022-07-26T14:55:10;28.40;48.30
47174;DHT22;36730;49.036;9.094;2022-07-26T14:57:36;28.40;48.30
47174;DHT22;36730;49.036;9.094;2022-07-26T15:00:02;28.40;48.30
47174;DHT22;36730;49.036;9.094;2022-07-26T15:02:28;28.40;48.20
47174;DHT22;36730;49.036;9.094;2022-07-26T15:04:54;28.50;48.30
47174;DHT22;36730;49.036;9.094;2022-07-26T15:07:20;28.60;48.60
47174;DHT22;36730;49.036;9.094;2022-07-26T15:09:45;28.60;48.30
47174;DHT22;36730;49.036;9.094;2022-07-26T15:12:10;28.60;48.30
47174;DHT22;36730;49.036;9.094;2022-07-26T15:14:36;28.60;48.30
47174;DHT22;36730;49.036;9.094;2022-07-26T15:17:02;28.60;48.30
47174;DHT22;36730;49.036;9.094;2022-07-26T15:19:27;28.60;48.10
47174;DHT22;36730;49.036;9.094;2022-07-26T15:21:53;28.70;48.10
47174;DHT22;36730;49.036;9.094;2022-07-26T15:24:19;28.70;48.10
47174;DHT22;36730;49.036;9.094;2022-07-26T15:26:44;28.70;48.00
47174;DHT22;36730;49.036;9.094;2022-07-26T15:29:10;28.80;47.70
47174;DHT22;36730;49.036;9.094;2022-07-26T15:31:35;28.80;47.70
47174;DHT22;36730;49.036;9.094;2022-07-26T15:34:01;28.90;47.50
47174;DHT22;36730;49.036;9.094;2022-07-26T15:36:26;28.90;47.60
47174;DHT22;36730;49.036;9.094;2022-07-26T15:38:52;28.80;47.50
47174;DHT22;36730;49.036;9.094;2022-07-26T15:41:17;28.90;47.70
47174;DHT22;36730;49.036;9.094;2022-07-26T15:43:43;28.80;47.20
47174;DHT22;36730;49.036;9.094;2022-07-26T15:46:08;28.90;47.70
47174;DHT22;36730;49.036;9.094;2022-07-26T15:48:34;28.90;47.10